Terminal Aerodrome Forecast
Issued by NWS

Current Version | Previous Version | Graphics & Text | Print | Product List | Glossary On
Versions: 1 2 3 4 5 6 7 8 9 10 11 12 13 14 15 16 17 18 19 20 21 22 23 24 25 26 27 28 29 30 31
000
FTUS41 KILN 230800 AAA
TAFLUK
TAF AMD
KLUK 230858Z 2309/2406 19004KT P6SM OVC018
      TEMPO 2314/2317 -SHRA
     FM232000 VRB02KT 5SM -SHRA BR OVC015
     FM240000 VRB02KT 5SM BR OVC020
     FM240400 12003KT 5SM -SHRA BR OVC015=

USA.gov is the U.S. government's official web portal to all federal, state and local government web resources and services.